KIRK/IRK METAR and TAF weather

Enter ICAO airport designator
Station Type Date Time Source
KIRK METAR 2022/05/24 12:55 UTC NOAA

KIRK 241255Z AUTO 09008KT 10SM OVC049 12/05 A3013 RMK AO2 SLP205 T01220050


Station Type Date Time Source
KIRK Decoded METAR 2022/05/24 12:55 UTC NOAA

KIRKSVILLE REGIONAL AIRPORT , MO, United States (KIRK) 40-06N 092-33W 293M
May 24, 2022 - 08:55 AM EDT / 2022.05.24 1255 UTC
Wind: from the E (090 degrees) at 9 MPH (8 KT):0
Visibility: 10 mile(s):0
Sky conditions: overcast
Temperature: 54.0 F (12.2 C)
Dew Point: 41.0 F (5.0 C)
Relative Humidity: 61%
Pressure (altimeter): 30.13 in. Hg (1020 hPa)
ob: KIRK 241255Z AUTO 09008KT 10SM OVC049 12/05 A3013 RMK AO2 SLP205 T01220050
cycle: 13

Station Type Date Time Source
KIRK TAF UTC NOAA

Error!

Example: see airport list